Terminal Aerodrome Forecast
Issued by NWS

Home | Current Version | Previous Version | Text Only | Print | Product List | Glossary On
Versions: 1 2 3 4 5 6 7 8 9 10 11 12 13 14 15 16 17 18 19 20 21 22 23 24 25 26 27 28 29 30 31
273
FTUS46 KLOX 060536
TAFLAX
TAF
KLAX 060536Z 0606/0712 11005KT 6SM BR BKN018
     FM061100 09004KT 5SM -DZ BR OVC012
     FM061400 10005KT 6SM -DZ BR OVC018
     FM061730 VRB03KT P6SM SCT015 BKN025
     FM062000 25008KT P6SM SCT030
     FM070200 26007KT P6SM BKN015=

USA.gov is the U.S. government's official web portal to all federal, state and local government web resources and services.